createdAt,value
2019-05-10T00:00:31.693Z,9.05
2019-05-10T00:03:17.060Z,6.17
2019-05-10T00:06:02.315Z,4.67
2019-05-10T00:08:47.275Z,4.00
2019-05-10T00:11:20.665Z,6.00
2019-05-10T00:13:54.911Z,4.78
2019-05-10T00:16:22.032Z,5.92
2019-05-10T00:18:48.796Z,4.22
2019-05-10T00:21:15.280Z,8.13
2019-05-10T00:23:41.740Z,8.40
2019-05-10T00:26:08.203Z,8.48
2019-05-10T00:28:34.673Z,12.15
2019-05-10T00:31:01.153Z,5.30
2019-05-10T00:33:27.612Z,5.80
2019-05-10T00:35:54.556Z,5.55
2019-05-10T00:38:21.023Z,5.20
2019-05-10T00:40:47.582Z,7.95
2019-05-10T00:43:14.469Z,6.67
2019-05-10T00:45:40.836Z,6.90
2019-05-10T00:48:07.332Z,7.55
2019-05-10T00:50:33.804Z,6.15
2019-05-10T00:53:00.286Z,5.90
2019-05-10T00:55:26.840Z,11.97
2019-05-10T00:57:53.424Z,5.00
2019-05-10T01:00:20.063Z,11.25
2019-05-10T01:02:46.485Z,9.28
2019-05-10T01:05:13.402Z,7.35
2019-05-10T01:07:39.876Z,6.55
2019-05-10T01:10:08.688Z,7.28
2019-05-10T01:12:35.092Z,4.45
2019-05-10T01:15:01.659Z,5.40
2019-05-10T01:17:28.136Z,7.58
2019-05-10T01:19:54.738Z,3.45
2019-05-10T01:22:21.306Z,6.47
2019-05-10T01:24:47.765Z,6.08
2019-05-10T01:27:14.325Z,5.92
2019-05-10T01:29:41.105Z,6.03
2019-05-10T01:32:08.048Z,5.05
2019-05-10T01:34:34.892Z,7.72
2019-05-10T01:37:01.353Z,10.90
2019-05-10T01:39:27.830Z,5.05
2019-05-10T01:41:54.327Z,3.83
2019-05-10T01:44:20.889Z,4.42
2019-05-10T01:46:48.153Z,6.03
2019-05-10T01:49:14.745Z,4.17
2019-05-10T01:51:41.204Z,5.30
2019-05-10T01:54:07.690Z,7.30
2019-05-10T01:56:34.141Z,5.17
2019-05-10T01:59:00.611Z,9.80
2019-05-10T02:01:26.967Z,7.28
2019-05-10T02:03:53.842Z,4.12
2019-05-10T02:06:20.287Z,6.90
2019-05-10T02:08:46.844Z,6.22
2019-05-10T02:11:13.353Z,4.25
2019-05-10T02:13:39.808Z,4.42
2019-05-10T02:16:06.624Z,6.47
2019-05-10T02:18:33.075Z,4.25
2019-05-10T02:20:59.554Z,6.72
2019-05-10T02:23:26.096Z,7.15
2019-05-10T02:26:08.278Z,9.35
2019-05-10T02:28:20.861Z,5.65
2019-05-10T02:30:48.000Z,6.15
2019-05-10T02:33:14.569Z,4.60
2019-05-10T02:35:41.140Z,6.60
2019-05-10T02:38:07.592Z,4.20
2019-05-10T02:40:34.085Z,5.60
2019-05-10T02:43:00.538Z,4.25
2019-05-10T02:45:27.096Z,5.87
2019-05-10T02:47:53.546Z,6.03
2019-05-10T02:50:20.199Z,6.10
2019-05-10T02:52:46.785Z,10.35
2019-05-10T02:55:13.430Z,6.92
2019-05-10T02:57:40.000Z,5.08
2019-05-10T03:00:08.353Z,5.45
2019-05-10T03:02:35.624Z,15.50
2019-05-10T03:05:04.375Z,7.22
2019-05-10T03:07:34.931Z,5.45
2019-05-10T03:10:03.584Z,5.78
2019-05-10T03:12:30.031Z,9.15
2019-05-10T03:14:57.103Z,6.78
2019-05-10T03:17:24.435Z,5.28
2019-05-10T03:19:53.105Z,5.37
2019-05-10T03:22:19.757Z,5.47
2019-05-10T03:24:46.242Z,5.25
2019-05-10T03:27:12.781Z,6.28
2019-05-10T03:29:39.693Z,7.17
2019-05-10T03:32:06.542Z,9.33
2019-05-10T03:34:33.141Z,6.50
2019-05-10T03:36:59.823Z,6.65
2019-05-10T03:39:26.296Z,7.50
2019-05-10T03:41:52.762Z,7.42
2019-05-10T03:44:19.206Z,10.75
2019-05-10T03:46:45.681Z,9.93
2019-05-10T03:49:12.134Z,8.15
2019-05-10T03:51:38.928Z,12.82
2019-05-10T03:54:05.582Z,11.78
2019-05-10T03:56:32.056Z,10.60
2019-05-10T03:58:58.500Z,11.73
2019-05-10T04:01:25.081Z,15.80
2019-05-10T04:03:51.528Z,10.82
2019-05-10T04:06:17.975Z,13.10
2019-05-10T04:08:44.547Z,20.10
2019-05-10T04:11:11.317Z,14.58
2019-05-10T04:13:37.794Z,16.40
2019-05-10T04:16:04.240Z,20.23
2019-05-10T04:18:31.030Z,14.43
2019-05-10T04:20:57.486Z,14.00
2019-05-10T04:23:23.949Z,14.20
2019-05-10T04:25:50.709Z,19.12
2019-05-10T04:28:17.153Z,19.90
2019-05-10T04:30:45.224Z,13.10
2019-05-10T04:33:11.687Z,13.98
2019-05-10T04:35:38.159Z,13.80
2019-05-10T04:38:05.055Z,10.43
2019-05-10T04:40:32.009Z,15.80
2019-05-10T04:42:58.582Z,12.30
2019-05-10T04:45:25.710Z,18.55
2019-05-10T04:47:52.153Z,13.72
2019-05-10T04:50:18.969Z,11.85
2019-05-10T04:52:45.409Z,13.00
2019-05-10T04:55:12.242Z,15.55
2019-05-10T04:57:50.099Z,15.83
2019-05-10T05:00:07.462Z,19.12
2019-05-10T05:02:34.202Z,18.82
2019-05-10T05:05:00.945Z,10.18
2019-05-10T05:07:27.504Z,10.25
2019-05-10T05:09:53.955Z,18.55
2019-05-10T05:12:20.424Z,13.25
2019-05-10T05:14:46.987Z,14.73
2019-05-10T05:17:13.461Z,10.35
2019-05-10T05:19:40.944Z,17.30
2019-05-10T05:22:08.028Z,14.75
2019-05-10T05:24:34.580Z,11.63
2019-05-10T05:27:01.024Z,16.75
2019-05-10T05:29:27.504Z,15.35
2019-05-10T05:32:00.842Z,14.18
2019-05-10T05:34:22.241Z,9.75
2019-05-10T05:36:48.989Z,10.95
2019-05-10T05:39:15.466Z,18.62
2019-05-10T05:41:49.115Z,17.57
2019-05-10T05:44:10.301Z,11.53
2019-05-10T05:46:36.884Z,13.22
2019-05-10T05:49:03.453Z,12.03
2019-05-10T05:51:29.907Z,12.18
2019-05-10T05:53:56.427Z,10.13
2019-05-10T05:56:23.317Z,11.70
2019-05-10T05:58:49.893Z,10.08
2019-05-10T06:01:26.331Z,10.90
2019-05-10T06:03:45.403Z,14.20
2019-05-10T06:06:26.819Z,15.40
2019-05-10T06:08:40.018Z,28.42
2019-05-10T06:11:09.071Z,12.85
2019-05-10T06:13:34.753Z,12.03
2019-05-10T06:16:06.858Z,15.93
2019-05-10T06:18:29.809Z,11.53
2019-05-10T06:20:56.297Z,10.58
2019-05-10T06:23:23.639Z,13.60
2019-05-10T06:25:50.127Z,11.65
2019-05-10T06:28:26.579Z,11.80
2019-05-10T06:30:45.265Z,13.28
2019-05-10T06:33:13.233Z,13.95
2019-05-10T06:35:39.912Z,9.35
2019-05-10T06:38:06.808Z,11.50
2019-05-10T06:40:37.504Z,9.58
2019-05-10T06:43:07.018Z,10.70
2019-05-10T06:45:30.237Z,12.20
2019-05-10T06:47:56.707Z,10.63
2019-05-10T06:50:29.836Z,12.25
2019-05-10T06:53:00.707Z,13.95
2019-05-10T06:55:23.632Z,10.28
2019-05-10T06:57:58.754Z,9.85
2019-05-10T07:00:19.235Z,13.95
2019-05-10T07:02:46.033Z,16.32
2019-05-10T07:05:12.797Z,13.70
2019-05-10T07:07:44.619Z,11.08
2019-05-10T07:10:18.732Z,11.50
2019-05-10T07:12:39.100Z,14.20
2019-05-10T07:15:07.431Z,14.43
2019-05-10T07:17:41.366Z,12.60
2019-05-10T07:20:06.772Z,16.35
2019-05-10T07:22:33.484Z,15.43
2019-05-10T07:25:04.315Z,18.37
2019-05-10T07:27:28.523Z,14.25
2019-05-10T07:29:55.110Z,14.60
2019-05-10T07:32:24.014Z,13.75
2019-05-10T07:34:58.609Z,15.18
2019-05-10T07:37:19.020Z,13.00
2019-05-10T07:39:45.495Z,13.93
2019-05-10T07:42:11.951Z,17.92
2019-05-10T07:44:41.579Z,11.55
2019-05-10T07:47:07.020Z,10.32
2019-05-10T07:49:33.742Z,14.28
2019-05-10T07:52:02.109Z,14.78
2019-05-10T07:54:28.596Z,12.85
2019-05-10T07:56:55.174Z,11.55
2019-05-10T07:59:28.207Z,12.98
2019-05-10T08:01:50.006Z,12.90
2019-05-10T08:04:19.716Z,11.73
2019-05-10T08:06:47.887Z,13.38
2019-05-10T08:09:13.400Z,13.28
2019-05-10T08:11:39.967Z,12.10
2019-05-10T08:14:10.903Z,15.75
2019-05-10T08:16:34.804Z,12.90
2019-05-10T08:19:02.393Z,16.52
2019-05-10T08:21:28.947Z,11.75
2019-05-10T08:23:59.069Z,12.88
2019-05-10T08:26:24.939Z,12.23
2019-05-10T08:28:52.562Z,13.28
2019-05-10T08:31:21.794Z,13.45
2019-05-10T08:33:56.319Z,12.25
2019-05-10T08:36:16.658Z,14.20
2019-05-10T08:38:47.139Z,15.65
2019-05-10T08:41:16.514Z,15.65
2019-05-10T08:43:40.819Z,14.70
2019-05-10T08:46:08.436Z,12.37
2019-05-10T08:48:38.017Z,13.80
2019-05-10T08:51:06.458Z,13.35
2019-05-10T08:53:32.908Z,14.58
2019-05-10T08:56:01.940Z,12.40
2019-05-10T08:58:31.664Z,22.13
2019-05-10T09:01:15.528Z,13.90
2019-05-10T09:03:24.324Z,12.98
2019-05-10T09:05:52.471Z,16.42
2019-05-10T09:08:21.705Z,15.15
2019-05-10T09:10:47.596Z,12.40
2019-05-10T09:13:14.097Z,13.08
2019-05-10T09:15:51.175Z,19.00
2019-05-10T09:18:09.023Z,11.93
2019-05-10T09:20:35.484Z,13.20
2019-05-10T09:23:02.508Z,11.10
2019-05-10T09:25:31.139Z,11.97
2019-05-10T09:28:02.317Z,8.68
2019-05-10T09:30:35.490Z,10.20
2019-05-10T09:33:08.345Z,11.80
2019-05-10T09:35:29.340Z,11.65
2019-05-10T09:37:58.557Z,10.60
2019-05-10T09:40:26.405Z,8.43
2019-05-10T09:42:53.172Z,9.20
2019-05-10T09:45:22.185Z,15.95
2019-05-10T09:47:48.132Z,8.10
2019-05-10T09:50:15.117Z,8.98
2019-05-10T09:52:41.574Z,13.03
2019-05-10T09:55:14.496Z,12.40
2019-05-10T09:57:38.401Z,6.03
2019-05-10T10:00:07.416Z,6.33
2019-05-10T10:02:34.079Z,7.10
2019-05-10T10:05:01.104Z,6.37
2019-05-10T10:07:29.336Z,10.67
2019-05-10T10:09:57.067Z,8.68
2019-05-10T10:12:23.597Z,8.50
2019-05-10T10:14:49.992Z,16.25
2019-05-10T10:17:18.351Z,9.08
2019-05-10T10:19:47.807Z,9.83
2019-05-10T10:22:17.400Z,8.33
2019-05-10T10:24:48.969Z,6.70
2019-05-10T10:27:13.139Z,7.90
2019-05-10T10:29:40.196Z,4.87
2019-05-10T10:32:07.950Z,6.80
2019-05-10T10:34:38.754Z,5.05
2019-05-10T10:37:02.894Z,5.95
2019-05-10T10:39:29.810Z,6.90
2019-05-10T10:41:57.298Z,7.40
2019-05-10T10:44:24.106Z,7.65
2019-05-10T10:46:50.556Z,6.70
2019-05-10T10:49:17.788Z,9.80
2019-05-10T10:51:47.092Z,6.57
2019-05-10T10:54:12.789Z,7.20
2019-05-10T10:56:39.688Z,10.23
2019-05-10T10:59:07.505Z,7.23
2019-05-10T11:01:48.960Z,5.83
2019-05-10T11:04:08.053Z,4.67
2019-05-10T11:06:31.352Z,6.50
2019-05-10T11:08:57.805Z,4.23
2019-05-10T11:11:32.899Z,4.00
2019-05-10T11:14:00.594Z,3.50
2019-05-10T11:16:21.608Z,5.40
2019-05-10T11:18:48.048Z,5.10
2019-05-10T11:21:14.762Z,3.27
2019-05-10T11:23:42.024Z,4.53
2019-05-10T11:26:10.829Z,4.30
2019-05-10T11:28:43.465Z,5.40
2019-05-10T11:31:06.165Z,3.70
2019-05-10T11:33:41.138Z,3.47
2019-05-10T11:36:08.751Z,3.30
2019-05-10T11:38:35.448Z,3.70
2019-05-10T11:41:06.735Z,4.20
2019-05-10T11:43:31.343Z,4.20
2019-05-10T11:45:57.903Z,4.63
2019-05-10T11:48:28.983Z,4.00
2019-05-10T11:50:53.275Z,8.83
2019-05-10T11:53:20.906Z,9.33
2019-05-10T11:55:48.388Z,9.47
2019-05-10T11:58:15.025Z,5.30
2019-05-10T12:00:41.779Z,5.90
2019-05-10T12:03:14.797Z,5.20
2019-05-10T12:05:37.163Z,4.50
2019-05-10T12:08:03.927Z,4.80
2019-05-10T12:10:53.809Z,7.17
2019-05-10T12:13:24.384Z,5.07
2019-05-10T12:15:47.305Z,6.87
2019-05-10T12:18:15.043Z,5.80
2019-05-10T12:20:55.658Z,4.53
2019-05-10T12:23:13.291Z,5.27
2019-05-10T12:25:53.225Z,5.30
2019-05-10T12:28:07.077Z,5.00
2019-05-10T12:30:34.850Z,5.53
2019-05-10T12:33:08.773Z,5.57
2019-05-10T12:35:35.580Z,4.30
2019-05-10T12:38:01.495Z,5.12
2019-05-10T12:40:27.296Z,5.50
2019-05-10T12:42:54.030Z,5.10
2019-05-10T12:45:23.091Z,7.13
2019-05-10T12:47:51.420Z,8.00
2019-05-10T12:50:17.842Z,4.37
2019-05-10T12:52:53.088Z,6.33
2019-05-10T12:55:12.784Z,4.40
2019-05-10T12:57:42.861Z,6.97
2019-05-10T13:00:13.344Z,4.10
2019-05-10T13:02:37.398Z,6.97
2019-05-10T13:05:04.380Z,4.33
2019-05-10T13:07:31.037Z,3.60
2019-05-10T13:10:03.610Z,3.70
2019-05-10T13:12:25.911Z,3.60
2019-05-10T13:14:54.120Z,8.30
2019-05-10T13:17:23.665Z,4.20
2019-05-10T13:19:52.788Z,4.17
2019-05-10T13:22:19.417Z,4.83
2019-05-10T13:24:46.082Z,4.67
2019-05-10T13:27:12.781Z,10.43
2019-05-10T13:29:40.671Z,5.10
2019-05-10T13:32:07.781Z,4.90
2019-05-10T13:34:34.219Z,4.97
2019-05-10T13:37:00.697Z,5.17
2019-05-10T13:39:27.694Z,7.23
2019-05-10T13:41:57.032Z,5.30
2019-05-10T13:44:22.681Z,6.10
2019-05-10T13:46:49.158Z,4.80
2019-05-10T13:49:15.873Z,6.03
2019-05-10T13:51:42.403Z,6.35
2019-05-10T13:54:09.046Z,4.40
2019-05-10T13:56:35.614Z,4.60
2019-05-10T13:59:13.612Z,6.30
2019-05-10T14:01:30.616Z,6.03
2019-05-10T14:04:01.181Z,5.50
2019-05-10T14:06:26.334Z,4.80
2019-05-10T14:08:53.193Z,4.70
2019-05-10T14:11:19.536Z,6.37
2019-05-10T14:13:46.409Z,10.40
2019-05-10T14:16:18.344Z,6.17
2019-05-10T14:18:41.601Z,5.23
2019-05-10T14:21:08.053Z,5.60
2019-05-10T14:23:35.687Z,5.17
2019-05-10T14:26:03.301Z,5.10
2019-05-10T14:28:30.008Z,7.40
2019-05-10T14:30:58.552Z,4.93
2019-05-10T14:33:24.725Z,4.27
2019-05-10T14:35:55.103Z,7.00
2019-05-10T14:38:22.701Z,5.40
2019-05-10T14:40:47.975Z,6.67
2019-05-10T14:43:14.408Z,5.47
2019-05-10T14:45:41.011Z,5.33
2019-05-10T14:48:07.569Z,6.57
2019-05-10T14:50:34.441Z,4.90
2019-05-10T14:53:00.900Z,4.90
2019-05-10T14:55:33.985Z,5.57
2019-05-10T14:57:56.107Z,4.20
2019-05-10T15:00:22.886Z,6.23
2019-05-10T15:02:49.341Z,6.00
2019-05-10T15:05:18.079Z,5.53
2019-05-10T15:07:44.745Z,6.37
2019-05-10T15:10:11.441Z,4.00
2019-05-10T15:12:37.889Z,6.73
2019-05-10T15:15:05.398Z,5.73
2019-05-10T15:17:31.833Z,5.63
2019-05-10T15:20:00.045Z,7.37
2019-05-10T15:22:26.668Z,6.13
2019-05-10T15:24:53.271Z,5.20
2019-05-10T15:27:21.899Z,5.47
2019-05-10T15:29:48.364Z,5.70
2019-05-10T15:32:14.752Z,4.93
2019-05-10T15:34:41.204Z,5.03
2019-05-10T15:37:09.408Z,4.50
2019-05-10T15:39:36.137Z,5.70
2019-05-10T15:42:03.211Z,5.27
2019-05-10T15:44:31.580Z,5.70
2019-05-10T15:46:58.388Z,5.07
2019-05-10T15:49:24.968Z,6.30
2019-05-10T15:51:57.000Z,5.93
2019-05-10T15:54:19.830Z,6.17
2019-05-10T15:56:46.264Z,5.20
2019-05-10T15:59:18.519Z,5.87
2019-05-10T16:01:40.984Z,6.93
2019-05-10T16:04:07.531Z,8.80
2019-05-10T16:06:37.831Z,5.00
2019-05-10T16:09:16.824Z,8.47
2019-05-10T16:11:33.694Z,8.70
2019-05-10T16:14:01.661Z,7.20
2019-05-10T16:16:30.424Z,4.60
2019-05-10T16:18:57.215Z,5.60
2019-05-10T16:21:24.019Z,7.00
2019-05-10T16:23:50.498Z,8.10
2019-05-10T16:26:22.307Z,5.40
2019-05-10T16:28:45.981Z,7.57
2019-05-10T16:31:12.363Z,6.57
2019-05-10T16:33:39.178Z,6.20
2019-05-10T16:36:08.273Z,7.23
2019-05-10T16:38:33.893Z,6.00
2019-05-10T16:41:00.766Z,5.50
2019-05-10T16:43:27.327Z,4.37
2019-05-10T16:45:53.786Z,6.30
2019-05-10T16:48:20.460Z,5.67
2019-05-10T16:50:46.911Z,5.63
2019-05-10T16:53:13.494Z,4.63
2019-05-10T16:55:42.577Z,5.00
2019-05-10T16:58:09.435Z,4.93
2019-05-10T17:00:40.769Z,5.57
2019-05-10T17:03:05.104Z,6.60
2019-05-10T17:05:31.668Z,5.23
2019-05-10T17:07:58.900Z,5.60
2019-05-10T17:10:27.012Z,6.23
2019-05-10T17:12:54.104Z,7.00
2019-05-10T17:15:20.661Z,9.00
2019-05-10T17:17:47.174Z,6.77
2019-05-10T17:20:15.873Z,10.00
2019-05-10T17:22:42.424Z,6.20
2019-05-10T17:25:09.295Z,5.43
2019-05-10T17:27:35.868Z,5.27
2019-05-10T17:30:04.351Z,6.47
2019-05-10T17:32:31.004Z,6.20
2019-05-10T17:34:59.109Z,9.10
2019-05-10T17:37:29.924Z,6.73
2019-05-10T17:39:54.124Z,7.80
2019-05-10T17:42:20.782Z,6.93
2019-05-10T17:44:47.347Z,7.50
2019-05-10T17:47:13.828Z,9.40
2019-05-10T17:49:40.295Z,9.67
2019-05-10T17:52:07.038Z,6.40
2019-05-10T17:54:53.290Z,6.40
2019-05-10T17:57:19.760Z,4.80
2019-05-10T17:59:47.098Z,6.70
2019-05-10T18:02:14.600Z,8.80
2019-05-10T18:04:41.072Z,6.10
2019-05-10T18:07:07.548Z,5.73
2019-05-10T18:09:34.118Z,6.90
2019-05-10T18:12:00.663Z,10.50
2019-05-10T18:14:29.516Z,6.70
2019-05-10T18:16:55.731Z,6.90
2019-05-10T18:19:24.549Z,9.53
2019-05-10T18:21:54.975Z,7.37
2019-05-10T18:24:18.960Z,9.77
2019-05-10T18:26:45.415Z,7.80
2019-05-10T18:29:11.918Z,7.07
2019-05-10T18:31:38.473Z,7.50
2019-05-10T18:34:05.069Z,7.43
2019-05-10T18:36:50.417Z,8.43
2019-05-10T18:39:00.084Z,9.23
2019-05-10T18:41:26.845Z,10.63
2019-05-10T18:43:53.241Z,7.45
2019-05-10T18:46:19.929Z,7.40
2019-05-10T18:48:46.979Z,9.17
2019-05-10T18:51:17.867Z,7.20
2019-05-10T18:53:42.063Z,8.40
2019-05-10T18:56:08.549Z,11.97
2019-05-10T18:58:35.128Z,8.83
2019-05-10T19:01:02.454Z,8.37
2019-05-10T19:03:33.562Z,8.10
2019-05-10T19:05:57.378Z,8.28
2019-05-10T19:08:23.841Z,8.77
2019-05-10T19:10:50.320Z,9.05
2019-05-10T19:13:17.511Z,13.55
2019-05-10T19:15:51.709Z,14.75
2019-05-10T19:18:12.809Z,12.13
2019-05-10T19:20:39.268Z,8.58
2019-05-10T19:23:05.754Z,9.55
2019-05-10T19:25:32.318Z,8.65
2019-05-10T19:27:58.899Z,8.73
2019-05-10T19:30:25.489Z,9.33
2019-05-10T19:32:56.322Z,9.75
2019-05-10T19:35:20.596Z,8.63
2019-05-10T19:37:53.989Z,8.95
2019-05-10T19:40:22.474Z,8.53
2019-05-10T19:42:49.705Z,8.15
2019-05-10T19:45:19.286Z,9.60
2019-05-10T19:47:44.657Z,9.15
2019-05-10T19:50:11.434Z,8.80
2019-05-10T19:52:38.199Z,7.90
2019-05-10T19:55:05.143Z,8.20
2019-05-10T19:57:31.542Z,7.72
2019-05-10T19:59:58.432Z,8.00
2019-05-10T20:02:25.357Z,8.40
2019-05-10T20:04:51.853Z,8.20
2019-05-10T20:07:18.320Z,10.63
2019-05-10T20:09:44.822Z,7.83
2019-05-10T20:12:11.272Z,9.25
2019-05-10T20:14:37.740Z,8.85
2019-05-10T20:17:04.350Z,9.73
2019-05-10T20:19:30.907Z,9.38
2019-05-10T20:21:57.393Z,7.78
2019-05-10T20:24:23.955Z,8.08
2019-05-10T20:26:50.450Z,10.08
2019-05-10T20:29:17.037Z,8.03
2019-05-10T20:31:43.511Z,9.48
2019-05-10T20:34:10.077Z,8.60
2019-05-10T20:36:36.938Z,8.80
2019-05-10T20:39:05.904Z,7.72
2019-05-10T20:41:32.300Z,8.23
2019-05-10T20:43:59.130Z,8.30
2019-05-10T20:46:25.913Z,7.40
2019-05-10T20:48:52.504Z,8.38
2019-05-10T20:51:18.969Z,7.42
2019-05-10T20:53:48.100Z,8.08
2019-05-10T20:56:13.740Z,8.13
2019-05-10T20:58:40.229Z,8.28
2019-05-10T21:01:06.806Z,10.50
2019-05-10T21:03:33.550Z,7.72
2019-05-10T21:06:00.021Z,7.60
2019-05-10T21:08:26.518Z,6.65
2019-05-10T21:10:52.974Z,8.40
2019-05-10T21:13:19.459Z,7.80
2019-05-10T21:15:45.912Z,7.10
2019-05-10T21:18:12.514Z,8.35
2019-05-10T21:20:38.965Z,11.75
2019-05-10T21:23:05.549Z,8.10
2019-05-10T21:25:32.201Z,7.78
2019-05-10T21:27:58.808Z,8.75
2019-05-10T21:30:25.280Z,12.35
2019-05-10T21:32:51.649Z,10.28
2019-05-10T21:35:18.244Z,8.98
2019-05-10T21:37:44.904Z,8.40
2019-05-10T21:40:11.593Z,8.43
2019-05-10T21:42:38.053Z,8.38
2019-05-10T21:45:04.731Z,8.90
2019-05-10T21:47:31.208Z,10.15
2019-05-10T21:49:57.604Z,9.10
2019-05-10T21:52:24.074Z,10.93
2019-05-10T21:54:50.651Z,9.73
2019-05-10T21:57:17.224Z,8.48
2019-05-10T21:59:43.940Z,8.23
2019-05-10T22:02:10.401Z,8.23
2019-05-10T22:04:36.977Z,9.90
2019-05-10T22:07:03.817Z,8.00
2019-05-10T22:09:30.303Z,10.30
2019-05-10T22:11:59.589Z,8.08
2019-05-10T22:14:25.248Z,8.45
2019-05-10T22:16:51.997Z,8.25
2019-05-10T22:19:18.456Z,8.48
2019-05-10T22:21:44.938Z,8.23
2019-05-10T22:24:11.526Z,8.68
2019-05-10T22:26:38.027Z,9.18
2019-05-10T22:29:04.492Z,7.87
2019-05-10T22:31:30.985Z,9.28
2019-05-10T22:33:57.440Z,8.05
2019-05-10T22:36:23.927Z,9.65
2019-05-10T22:39:05.603Z,12.68
2019-05-10T22:41:18.663Z,9.90
2019-05-10T22:43:45.141Z,8.00
2019-05-10T22:46:11.603Z,8.53
2019-05-10T22:48:38.080Z,8.78
2019-05-10T22:51:04.571Z,8.70
2019-05-10T22:53:31.049Z,8.33
2019-05-10T22:55:57.523Z,9.45
2019-05-10T22:58:23.916Z,7.80
2019-05-10T23:00:50.386Z,9.13
2019-05-10T23:03:18.232Z,9.45
2019-05-10T23:05:44.957Z,11.50
2019-05-10T23:08:11.456Z,13.62
2019-05-10T23:10:38.184Z,11.63
2019-05-10T23:13:04.984Z,12.35
2019-05-10T23:15:31.529Z,10.75
2019-05-10T23:17:57.976Z,10.38
2019-05-10T23:20:24.479Z,10.43
2019-05-10T23:22:51.021Z,10.55
2019-05-10T23:25:17.755Z,11.28
2019-05-10T23:27:44.493Z,10.43
2019-05-10T23:30:11.207Z,11.00
2019-05-10T23:32:37.590Z,10.25
2019-05-10T23:35:05.379Z,14.53
2019-05-10T23:37:32.003Z,10.32
2019-05-10T23:39:58.518Z,9.63
2019-05-10T23:42:24.969Z,15.95
2019-05-10T23:44:51.465Z,15.30
2019-05-10T23:47:18.454Z,10.53
2019-05-10T23:49:44.953Z,10.30
2019-05-10T23:52:11.402Z,11.83
2019-05-10T23:54:37.980Z,12.18
2019-05-10T23:57:05.000Z,11.10
2019-05-10T23:59:31.456Z,16.82
